Lynchburg Regional Preston Glenn Field Lynchburg US
ICAO: KLYH
IATA: LYH
Category: Medium
Scheduled Services: Yes

Elevation: 938 ft
TransAlt. 18000 ft.

Airport Communications:
ROANOKE APP/DEP:125.47
ATIS:119.8
CTAF:127.65
GND:121.9
LEESBURG RDO:109.2
TWR:127.65
UNICOM:122.95

KLYH Zoom In..

Runways:

(A) RW 04 length 7100 ft width 150 ft
ILS 110.10 / hdg 36

(B) RW 17 length 3386 ft width 75 ft
---- / hdg 170

(C) RW 22 length 7100 ft width 150 ft
---- / hdg 216

(D) RW 35 length 3386 ft width 75 ft
---- / hdg 350

Location; KLYH
Day. 23 / Time. 21.54 Zulu
* Altimeter: 29.77
* Temperature: 14° c. 57.2°f.
* Wind from: VRB° Speed 03 kn.
Dewpoint: -03° c.
Visibility: 10 Statute Miles.
Clouds: Clear (automated report).

KLYH 232154Z VRB03KT 10SM CLR 14/M03 A2977 RMK AO2 PRESRR SLP077 T01391028


Wind From VRB°
Speed 03 kn.

YouTube Music Video
 
jpsmedia.com for Web Design  worldairports.se 2018   terms of use